sensor_id;sensor_type;location;lat;lon;timestamp;temperature;humidity
41882;DHT22;27562;47.524;12.404;2022-11-25T00:01:23;1.00;99.90
41882;DHT22;27562;47.524;12.404;2022-11-25T00:03:49;0.90;99.90
41882;DHT22;27562;47.524;12.404;2022-11-25T00:06:19;0.90;99.90
41882;DHT22;27562;47.524;12.404;2022-11-25T00:08:46;0.90;99.90
41882;DHT22;27562;47.524;12.404;2022-11-25T00:11:12;0.90;99.90
41882;DHT22;27562;47.524;12.404;2022-11-25T00:13:38;0.90;99.90
41882;DHT22;27562;47.524;12.404;2022-11-25T00:16:06;0.80;99.90
41882;DHT22;27562;47.524;12.404;2022-11-25T00:18:31;0.80;99.90
41882;DHT22;27562;47.524;12.404;2022-11-25T00:20:57;0.80;99.90
41882;DHT22;27562;47.524;12.404;2022-11-25T00:23:23;0.80;99.90
41882;DHT22;27562;47.524;12.404;2022-11-25T00:25:49;0.80;99.90
41882;DHT22;27562;47.524;12.404;2022-11-25T00:28:15;0.90;99.90
41882;DHT22;27562;47.524;12.404;2022-11-25T00:30:42;0.90;99.90
41882;DHT22;27562;47.524;12.404;2022-11-25T00:33:08;1.00;99.90
41882;DHT22;27562;47.524;12.404;2022-11-25T00:35:34;1.00;99.90
41882;DHT22;27562;47.524;12.404;2022-11-25T00:37:59;1.00;99.90
41882;DHT22;27562;47.524;12.404;2022-11-25T00:40:25;1.00;99.90
41882;DHT22;27562;47.524;12.404;2022-11-25T00:42:51;1.00;99.90
41882;DHT22;27562;47.524;12.404;2022-11-25T00:45:35;1.00;99.90
41882;DHT22;27562;47.524;12.404;2022-11-25T00:48:00;1.00;99.90
41882;DHT22;27562;47.524;12.404;2022-11-25T00:50:26;1.10;99.90
41882;DHT22;27562;47.524;12.404;2022-11-25T00:52:51;1.10;99.90
41882;DHT22;27562;47.524;12.404;2022-11-25T00:55:17;1.10;99.90
41882;DHT22;27562;47.524;12.404;2022-11-25T00:57:43;1.10;99.90
41882;DHT22;27562;47.524;12.404;2022-11-25T01:00:09;1.10;99.90
41882;DHT22;27562;47.524;12.404;2022-11-25T01:02:35;1.10;99.90
41882;DHT22;27562;47.524;12.404;2022-11-25T01:05:01;1.10;99.90
41882;DHT22;27562;47.524;12.404;2022-11-25T01:07:26;1.10;99.90
41882;DHT22;27562;47.524;12.404;2022-11-25T01:09:52;1.10;99.90
41882;DHT22;27562;47.524;12.404;2022-11-25T01:12:18;1.10;99.90
41882;DHT22;27562;47.524;12.404;2022-11-25T01:14:43;1.10;99.90
41882;DHT22;27562;47.524;12.404;2022-11-25T01:17:09;1.10;99.90
41882;DHT22;27562;47.524;12.404;2022-11-25T01:19:34;1.10;99.90
41882;DHT22;27562;47.524;12.404;2022-11-25T01:22:04;1.10;99.90
41882;DHT22;27562;47.524;12.404;2022-11-25T01:24:30;1.10;99.90
41882;DHT22;27562;47.524;12.404;2022-11-25T01:26:56;1.10;99.90
41882;DHT22;27562;47.524;12.404;2022-11-25T01:29:21;1.10;99.90
41882;DHT22;27562;47.524;12.404;2022-11-25T01:31:47;1.10;99.90
41882;DHT22;27562;47.524;12.404;2022-11-25T01:34:14;1.10;99.90
41882;DHT22;27562;47.524;12.404;2022-11-25T01:36:40;1.10;99.90
41882;DHT22;27562;47.524;12.404;2022-11-25T01:39:06;1.10;99.90
41882;DHT22;27562;47.524;12.404;2022-11-25T01:41:32;1.10;99.90
41882;DHT22;27562;47.524;12.404;2022-11-25T01:44:17;1.10;99.90
41882;DHT22;27562;47.524;12.404;2022-11-25T01:52:10;0.80;99.90
41882;DHT22;27562;47.524;12.404;2022-11-25T01:54:39;0.80;99.90
41882;DHT22;27562;47.524;12.404;2022-11-25T01:57:08;0.80;99.90
41882;DHT22;27562;47.524;12.404;2022-11-25T01:59:36;0.80;99.90
41882;DHT22;27562;47.524;12.404;2022-11-25T02:02:02;0.80;99.90
41882;DHT22;27562;47.524;12.404;2022-11-25T02:04:30;0.80;99.90
41882;DHT22;27562;47.524;12.404;2022-11-25T02:06:58;0.90;99.90
41882;DHT22;27562;47.524;12.404;2022-11-25T02:09:25;0.90;99.90
41882;DHT22;27562;47.524;12.404;2022-11-25T02:11:51;0.90;99.90
41882;DHT22;27562;47.524;12.404;2022-11-25T02:14:17;0.90;99.90
41882;DHT22;27562;47.524;12.404;2022-11-25T02:16:44;0.90;99.90
41882;DHT22;27562;47.524;12.404;2022-11-25T02:19:15;0.90;99.90
41882;DHT22;27562;47.524;12.404;2022-11-25T02:21:43;0.90;99.90
41882;DHT22;27562;47.524;12.404;2022-11-25T02:24:13;0.90;99.90
41882;DHT22;27562;47.524;12.404;2022-11-25T02:26:40;0.90;99.90
41882;DHT22;27562;47.524;12.404;2022-11-25T02:29:06;0.80;99.90
41882;DHT22;27562;47.524;12.404;2022-11-25T02:31:31;0.80;99.90
41882;DHT22;27562;47.524;12.404;2022-11-25T02:33:57;0.80;99.90
41882;DHT22;27562;47.524;12.404;2022-11-25T02:36:22;0.80;99.90
41882;DHT22;27562;47.524;12.404;2022-11-25T02:41:17;0.80;99.90
41882;DHT22;27562;47.524;12.404;2022-11-25T02:43:44;0.80;99.90
41882;DHT22;27562;47.524;12.404;2022-11-25T02:46:10;0.80;99.90
41882;DHT22;27562;47.524;12.404;2022-11-25T02:48:37;0.80;99.90
41882;DHT22;27562;47.524;12.404;2022-11-25T02:51:03;0.80;99.90
41882;DHT22;27562;47.524;12.404;2022-11-25T02:53:29;0.80;99.90
41882;DHT22;27562;47.524;12.404;2022-11-25T02:55:55;0.80;99.90
41882;DHT22;27562;47.524;12.404;2022-11-25T02:58:22;0.80;99.90
41882;DHT22;27562;47.524;12.404;2022-11-25T03:00:48;0.80;99.90
41882;DHT22;27562;47.524;12.404;2022-11-25T03:03:14;0.70;99.90
41882;DHT22;27562;47.524;12.404;2022-11-25T03:05:40;0.70;99.90
41882;DHT22;27562;47.524;12.404;2022-11-25T03:08:06;0.70;99.90
41882;DHT22;27562;47.524;12.404;2022-11-25T03:10:32;0.70;99.90
41882;DHT22;27562;47.524;12.404;2022-11-25T03:12:57;0.70;99.90
41882;DHT22;27562;47.524;12.404;2022-11-25T03:15:23;0.70;99.90
41882;DHT22;27562;47.524;12.404;2022-11-25T03:17:49;0.60;99.90
41882;DHT22;27562;47.524;12.404;2022-11-25T03:20:14;0.60;99.90
41882;DHT22;27562;47.524;12.404;2022-11-25T03:22:41;0.60;99.90
41882;DHT22;27562;47.524;12.404;2022-11-25T03:25:07;0.60;99.90
41882;DHT22;27562;47.524;12.404;2022-11-25T03:27:33;0.60;99.90
41882;DHT22;27562;47.524;12.404;2022-11-25T03:29:58;0.60;99.90
41882;DHT22;27562;47.524;12.404;2022-11-25T03:32:24;0.60;99.90
41882;DHT22;27562;47.524;12.404;2022-11-25T03:34:50;0.60;99.90
41882;DHT22;27562;47.524;12.404;2022-11-25T03:37:15;0.60;99.90
41882;DHT22;27562;47.524;12.404;2022-11-25T03:39:41;0.50;99.90
41882;DHT22;27562;47.524;12.404;2022-11-25T03:42:06;0.50;99.90
41882;DHT22;27562;47.524;12.404;2022-11-25T03:44:32;0.50;99.90
41882;DHT22;27562;47.524;12.404;2022-11-25T03:46:57;0.40;99.90
41882;DHT22;27562;47.524;12.404;2022-11-25T03:49:23;0.50;99.90
41882;DHT22;27562;47.524;12.404;2022-11-25T03:51:49;0.50;99.90
41882;DHT22;27562;47.524;12.404;2022-11-25T03:54:14;0.50;99.90
41882;DHT22;27562;47.524;12.404;2022-11-25T03:56:40;0.60;99.90
41882;DHT22;27562;47.524;12.404;2022-11-25T03:59:05;0.60;99.90
41882;DHT22;27562;47.524;12.404;2022-11-25T04:01:31;0.70;99.90
41882;DHT22;27562;47.524;12.404;2022-11-25T04:03:56;0.70;99.90
41882;DHT22;27562;47.524;12.404;2022-11-25T04:06:22;0.70;99.90
41882;DHT22;27562;47.524;12.404;2022-11-25T04:08:48;0.80;99.90
41882;DHT22;27562;47.524;12.404;2022-11-25T04:11:14;0.80;99.90
41882;DHT22;27562;47.524;12.404;2022-11-25T04:13:40;0.80;99.90
41882;DHT22;27562;47.524;12.404;2022-11-25T04:16:05;0.80;99.90
41882;DHT22;27562;47.524;12.404;2022-11-25T04:18:31;0.80;99.90
41882;DHT22;27562;47.524;12.404;2022-11-25T04:20:56;0.80;99.90
41882;DHT22;27562;47.524;12.404;2022-11-25T04:23:22;0.80;99.90
41882;DHT22;27562;47.524;12.404;2022-11-25T04:25:48;0.80;99.90
41882;DHT22;27562;47.524;12.404;2022-11-25T04:28:14;0.80;99.90
41882;DHT22;27562;47.524;12.404;2022-11-25T04:30:40;0.90;99.90
41882;DHT22;27562;47.524;12.404;2022-11-25T04:33:05;0.90;99.90
41882;DHT22;27562;47.524;12.404;2022-11-25T04:35:31;0.90;99.90
41882;DHT22;27562;47.524;12.404;2022-11-25T04:37:56;0.90;99.90
41882;DHT22;27562;47.524;12.404;2022-11-25T04:40:22;0.90;99.90
41882;DHT22;27562;47.524;12.404;2022-11-25T04:42:47;0.90;99.90
41882;DHT22;27562;47.524;12.404;2022-11-25T04:45:14;0.90;99.90
41882;DHT22;27562;47.524;12.404;2022-11-25T04:47:40;0.90;99.90
41882;DHT22;27562;47.524;12.404;2022-11-25T04:50:07;0.90;99.90
41882;DHT22;27562;47.524;12.404;2022-11-25T04:52:33;0.90;99.90
41882;DHT22;27562;47.524;12.404;2022-11-25T04:54:59;0.90;99.90
41882;DHT22;27562;47.524;12.404;2022-11-25T04:57:25;0.80;99.90
41882;DHT22;27562;47.524;12.404;2022-11-25T04:59:50;0.80;99.90
41882;DHT22;27562;47.524;12.404;2022-11-25T05:02:21;0.80;99.90
41882;DHT22;27562;47.524;12.404;2022-11-25T05:04:47;0.70;99.90
41882;DHT22;27562;47.524;12.404;2022-11-25T05:07:13;0.70;99.90
41882;DHT22;27562;47.524;12.404;2022-11-25T05:09:39;0.70;99.90
41882;DHT22;27562;47.524;12.404;2022-11-25T05:12:06;0.70;99.90
41882;DHT22;27562;47.524;12.404;2022-11-25T05:14:32;0.60;99.90
41882;DHT22;27562;47.524;12.404;2022-11-25T05:17:02;0.60;99.90
41882;DHT22;27562;47.524;12.404;2022-11-25T05:19:28;0.70;99.90
41882;DHT22;27562;47.524;12.404;2022-11-25T05:21:54;0.70;99.90
41882;DHT22;27562;47.524;12.404;2022-11-25T05:24:19;0.70;99.90
41882;DHT22;27562;47.524;12.404;2022-11-25T05:26:45;0.70;99.90
41882;DHT22;27562;47.524;12.404;2022-11-25T05:29:11;0.70;99.90
41882;DHT22;27562;47.524;12.404;2022-11-25T05:31:36;0.70;99.90
41882;DHT22;27562;47.524;12.404;2022-11-25T05:34:02;0.70;99.90
41882;DHT22;27562;47.524;12.404;2022-11-25T05:36:28;0.70;99.90
41882;DHT22;27562;47.524;12.404;2022-11-25T05:38:57;0.70;99.90
41882;DHT22;27562;47.524;12.404;2022-11-25T05:41:23;0.70;99.90
41882;DHT22;27562;47.524;12.404;2022-11-25T05:43:48;0.70;99.90
41882;DHT22;27562;47.524;12.404;2022-11-25T05:46:14;0.70;99.90
41882;DHT22;27562;47.524;12.404;2022-11-25T05:48:39;0.70;99.90
41882;DHT22;27562;47.524;12.404;2022-11-25T05:51:05;0.70;99.90
41882;DHT22;27562;47.524;12.404;2022-11-25T05:53:31;0.70;99.90
41882;DHT22;27562;47.524;12.404;2022-11-25T05:56:06;0.70;99.90
41882;DHT22;27562;47.524;12.404;2022-11-25T05:58:32;0.70;99.90
41882;DHT22;27562;47.524;12.404;2022-11-25T06:00:58;0.70;99.90
41882;DHT22;27562;47.524;12.404;2022-11-25T06:03:24;0.60;99.90
41882;DHT22;27562;47.524;12.404;2022-11-25T06:05:49;0.60;99.90
41882;DHT22;27562;47.524;12.404;2022-11-25T06:08:15;0.60;99.90
41882;DHT22;27562;47.524;12.404;2022-11-25T06:10:41;0.60;99.90
41882;DHT22;27562;47.524;12.404;2022-11-25T06:13:07;0.60;99.90
41882;DHT22;27562;47.524;12.404;2022-11-25T06:15:32;0.60;99.90
41882;DHT22;27562;47.524;12.404;2022-11-25T06:17:58;0.60;99.90
41882;DHT22;27562;47.524;12.404;2022-11-25T06:20:24;0.60;99.90
41882;DHT22;27562;47.524;12.404;2022-11-25T06:22:49;0.60;99.90
41882;DHT22;27562;47.524;12.404;2022-11-25T06:25:15;0.60;99.90
41882;DHT22;27562;47.524;12.404;2022-11-25T06:27:40;0.60;99.90
41882;DHT22;27562;47.524;12.404;2022-11-25T06:30:06;0.60;99.90
41882;DHT22;27562;47.524;12.404;2022-11-25T06:32:32;0.60;99.90
41882;DHT22;27562;47.524;12.404;2022-11-25T06:34:57;0.60;99.90
41882;DHT22;27562;47.524;12.404;2022-11-25T06:37:23;0.60;99.90
41882;DHT22;27562;47.524;12.404;2022-11-25T06:39:48;0.60;99.90
41882;DHT22;27562;47.524;12.404;2022-11-25T06:42:14;0.60;99.90
41882;DHT22;27562;47.524;12.404;2022-11-25T06:44:40;0.60;99.90
41882;DHT22;27562;47.524;12.404;2022-11-25T06:47:05;0.60;99.90
41882;DHT22;27562;47.524;12.404;2022-11-25T06:49:31;0.50;99.90
41882;DHT22;27562;47.524;12.404;2022-11-25T06:51:56;0.50;99.90
41882;DHT22;27562;47.524;12.404;2022-11-25T06:54:22;0.50;99.90
41882;DHT22;27562;47.524;12.404;2022-11-25T06:56:47;0.50;99.90
41882;DHT22;27562;47.524;12.404;2022-11-25T06:59:16;0.50;99.90
41882;DHT22;27562;47.524;12.404;2022-11-25T07:01:42;0.50;99.90
41882;DHT22;27562;47.524;12.404;2022-11-25T07:04:07;0.50;99.90
41882;DHT22;27562;47.524;12.404;2022-11-25T07:06:33;0.50;99.90
41882;DHT22;27562;47.524;12.404;2022-11-25T07:08:58;0.40;99.90
41882;DHT22;27562;47.524;12.404;2022-11-25T07:11:28;0.40;99.90
41882;DHT22;27562;47.524;12.404;2022-11-25T07:13:55;0.40;99.90
41882;DHT22;27562;47.524;12.404;2022-11-25T07:16:21;0.40;99.90
41882;DHT22;27562;47.524;12.404;2022-11-25T07:18:47;0.40;99.90
41882;DHT22;27562;47.524;12.404;2022-11-25T07:21:17;0.40;99.90
41882;DHT22;27562;47.524;12.404;2022-11-25T07:23:43;0.40;99.90
41882;DHT22;27562;47.524;12.404;2022-11-25T07:26:22;0.40;99.90
41882;DHT22;27562;47.524;12.404;2022-11-25T07:28:49;0.40;99.90
41882;DHT22;27562;47.524;12.404;2022-11-25T07:31:17;0.30;99.90
41882;DHT22;27562;47.524;12.404;2022-11-25T07:33:43;0.30;99.90
41882;DHT22;27562;47.524;12.404;2022-11-25T07:36:10;0.30;99.90
41882;DHT22;27562;47.524;12.404;2022-11-25T07:38:36;0.30;99.90
41882;DHT22;27562;47.524;12.404;2022-11-25T07:41:08;0.40;99.90
41882;DHT22;27562;47.524;12.404;2022-11-25T07:43:34;0.30;99.90
41882;DHT22;27562;47.524;12.404;2022-11-25T07:46:10;0.40;99.90
41882;DHT22;27562;47.524;12.404;2022-11-25T07:48:36;0.40;99.90
41882;DHT22;27562;47.524;12.404;2022-11-25T07:51:02;0.40;99.90
41882;DHT22;27562;47.524;12.404;2022-11-25T07:53:27;0.40;99.90
41882;DHT22;27562;47.524;12.404;2022-11-25T07:55:53;0.30;99.90
41882;DHT22;27562;47.524;12.404;2022-11-25T07:58:18;0.40;99.90
41882;DHT22;27562;47.524;12.404;2022-11-25T08:00:44;0.40;99.90
41882;DHT22;27562;47.524;12.404;2022-11-25T08:03:09;0.40;99.90
41882;DHT22;27562;47.524;12.404;2022-11-25T08:05:35;0.50;99.90
41882;DHT22;27562;47.524;12.404;2022-11-25T08:08:00;0.50;99.90
41882;DHT22;27562;47.524;12.404;2022-11-25T08:10:26;0.50;99.90
41882;DHT22;27562;47.524;12.404;2022-11-25T08:12:51;0.50;99.90
41882;DHT22;27562;47.524;12.404;2022-11-25T08:15:17;0.50;99.90
41882;DHT22;27562;47.524;12.404;2022-11-25T08:17:43;0.60;99.90
41882;DHT22;27562;47.524;12.404;2022-11-25T08:20:09;0.60;99.90
41882;DHT22;27562;47.524;12.404;2022-11-25T08:22:34;0.60;99.90
41882;DHT22;27562;47.524;12.404;2022-11-25T08:25:00;0.60;99.90
41882;DHT22;27562;47.524;12.404;2022-11-25T08:27:25;0.60;99.90
41882;DHT22;27562;47.524;12.404;2022-11-25T08:29:51;0.60;99.90
41882;DHT22;27562;47.524;12.404;2022-11-25T08:32:17;0.70;99.90
41882;DHT22;27562;47.524;12.404;2022-11-25T08:34:42;0.70;99.90
41882;DHT22;27562;47.524;12.404;2022-11-25T08:37:08;0.70;99.90
41882;DHT22;27562;47.524;12.404;2022-11-25T08:39:33;0.70;99.90
41882;DHT22;27562;47.524;12.404;2022-11-25T08:42:01;0.80;99.90
41882;DHT22;27562;47.524;12.404;2022-11-25T08:44:26;0.80;99.90
41882;DHT22;27562;47.524;12.404;2022-11-25T08:46:54;0.80;99.90
41882;DHT22;27562;47.524;12.404;2022-11-25T08:49:19;0.80;99.90
41882;DHT22;27562;47.524;12.404;2022-11-25T08:51:46;0.80;99.90
41882;DHT22;27562;47.524;12.404;2022-11-25T08:54:12;0.80;99.90
41882;DHT22;27562;47.524;12.404;2022-11-25T08:56:38;0.80;99.90
41882;DHT22;27562;47.524;12.404;2022-11-25T08:59:04;0.80;99.90
41882;DHT22;27562;47.524;12.404;2022-11-25T09:01:30;0.80;99.90
41882;DHT22;27562;47.524;12.404;2022-11-25T09:03:56;0.90;99.90
41882;DHT22;27562;47.524;12.404;2022-11-25T09:06:22;1.00;99.90
41882;DHT22;27562;47.524;12.404;2022-11-25T09:08:48;1.00;99.90
41882;DHT22;27562;47.524;12.404;2022-11-25T09:11:14;1.10;99.90
41882;DHT22;27562;47.524;12.404;2022-11-25T09:13:40;1.10;99.90
41882;DHT22;27562;47.524;12.404;2022-11-25T09:16:05;1.20;99.90
41882;DHT22;27562;47.524;12.404;2022-11-25T09:18:31;1.20;99.90
41882;DHT22;27562;47.524;12.404;2022-11-25T09:20:57;1.30;99.90
41882;DHT22;27562;47.524;12.404;2022-11-25T09:23:23;1.30;99.90
41882;DHT22;27562;47.524;12.404;2022-11-25T09:25:58;1.30;99.90
41882;DHT22;27562;47.524;12.404;2022-11-25T09:28:24;1.40;99.90
41882;DHT22;27562;47.524;12.404;2022-11-25T09:30:50;1.50;99.90
41882;DHT22;27562;47.524;12.404;2022-11-25T09:33:16;1.60;99.90
41882;DHT22;27562;47.524;12.404;2022-11-25T09:35:42;1.70;99.90
41882;DHT22;27562;47.524;12.404;2022-11-25T09:38:07;1.80;99.90
41882;DHT22;27562;47.524;12.404;2022-11-25T09:49:13;2.30;99.90
41882;DHT22;27562;47.524;12.404;2022-11-25T09:51:51;2.40;99.90
41882;DHT22;27562;47.524;12.404;2022-11-25T09:54:21;2.40;99.90
41882;DHT22;27562;47.524;12.404;2022-11-25T09:56:50;2.50;99.90
41882;DHT22;27562;47.524;12.404;2022-11-25T10:02:18;2.50;99.90
41882;DHT22;27562;47.524;12.404;2022-11-25T10:04:46;2.50;99.90
41882;DHT22;27562;47.524;12.404;2022-11-25T10:07:26;2.50;99.90
41882;DHT22;27562;47.524;12.404;2022-11-25T10:09:58;2.60;99.90
41882;DHT22;27562;47.524;12.404;2022-11-25T10:12:29;2.50;99.90
41882;DHT22;27562;47.524;12.404;2022-11-25T10:15:00;2.60;99.90
41882;DHT22;27562;47.524;12.404;2022-11-25T10:20:16;2.60;99.90
41882;DHT22;27562;47.524;12.404;2022-11-25T10:22:44;2.60;99.90
41882;DHT22;27562;47.524;12.404;2022-11-25T10:25:16;2.60;99.90
41882;DHT22;27562;47.524;12.404;2022-11-25T10:27:54;2.70;99.90
41882;DHT22;27562;47.524;12.404;2022-11-25T10:30:22;2.70;99.90
41882;DHT22;27562;47.524;12.404;2022-11-25T10:32:52;2.80;99.90
41882;DHT22;27562;47.524;12.404;2022-11-25T10:35:20;2.90;99.90
41882;DHT22;27562;47.524;12.404;2022-11-25T10:37:48;2.90;99.90
41882;DHT22;27562;47.524;12.404;2022-11-25T10:40:19;3.00;99.90
41882;DHT22;27562;47.524;12.404;2022-11-25T10:42:45;3.00;99.90
41882;DHT22;27562;47.524;12.404;2022-11-25T10:45:11;3.10;99.90
41882;DHT22;27562;47.524;12.404;2022-11-25T10:48:00;3.20;99.90
41882;DHT22;27562;47.524;12.404;2022-11-25T10:52:54;3.20;99.90
41882;DHT22;27562;47.524;12.404;2022-11-25T10:55:22;3.20;99.90
41882;DHT22;27562;47.524;12.404;2022-11-25T10:57:50;3.20;99.90
41882;DHT22;27562;47.524;12.404;2022-11-25T11:00:27;3.30;99.90
41882;DHT22;27562;47.524;12.404;2022-11-25T11:02:53;3.30;99.90
41882;DHT22;27562;47.524;12.404;2022-11-25T11:07:48;3.30;99.90
41882;DHT22;27562;47.524;12.404;2022-11-25T11:10:31;3.30;99.90
41882;DHT22;27562;47.524;12.404;2022-11-25T11:13:00;3.40;99.90
41882;DHT22;27562;47.524;12.404;2022-11-25T11:15:27;3.40;99.90
41882;DHT22;27562;47.524;12.404;2022-11-25T11:17:54;3.50;99.90
41882;DHT22;27562;47.524;12.404;2022-11-25T11:22:47;3.50;99.90
41882;DHT22;27562;47.524;12.404;2022-11-25T11:27:45;3.50;99.90
41882;DHT22;27562;47.524;12.404;2022-11-25T11:30:15;3.60;99.90
41882;DHT22;27562;47.524;12.404;2022-11-25T11:32:42;3.60;99.90
41882;DHT22;27562;47.524;12.404;2022-11-25T11:37:44;3.60;99.90
41882;DHT22;27562;47.524;12.404;2022-11-25T11:42:44;3.70;99.90
41882;DHT22;27562;47.524;12.404;2022-11-25T11:58:03;3.70;99.90
41882;DHT22;27562;47.524;12.404;2022-11-25T12:00:34;3.80;99.90
41882;DHT22;27562;47.524;12.404;2022-11-25T12:03:13;3.80;99.90
41882;DHT22;27562;47.524;12.404;2022-11-25T12:05:40;3.90;99.90
41882;DHT22;27562;47.524;12.404;2022-11-25T12:08:18;3.90;99.90
41882;DHT22;27562;47.524;12.404;2022-11-25T12:10:46;4.00;99.90
41882;DHT22;27562;47.524;12.404;2022-11-25T12:13:15;4.00;99.90
41882;DHT22;27562;47.524;12.404;2022-11-25T12:15:51;4.00;99.90
41882;DHT22;27562;47.524;12.404;2022-11-25T12:21:03;4.10;99.90
41882;DHT22;27562;47.524;12.404;2022-11-25T12:26:07;4.20;99.90
41882;DHT22;27562;47.524;12.404;2022-11-25T12:28:33;4.30;99.90
41882;DHT22;27562;47.524;12.404;2022-11-25T12:33:35;4.40;99.90
41882;DHT22;27562;47.524;12.404;2022-11-25T12:36:07;4.50;99.90
41882;DHT22;27562;47.524;12.404;2022-11-25T12:41:22;4.60;99.90
41882;DHT22;27562;47.524;12.404;2022-11-25T12:43:50;4.70;99.90
41882;DHT22;27562;47.524;12.404;2022-11-25T12:46:34;4.80;99.90
41882;DHT22;27562;47.524;12.404;2022-11-25T12:49:01;4.80;99.90
41882;DHT22;27562;47.524;12.404;2022-11-25T12:56:47;5.00;99.90
41882;DHT22;27562;47.524;12.404;2022-11-25T13:05:01;5.10;99.90
41882;DHT22;27562;47.524;12.404;2022-11-25T13:07:41;5.10;99.90
41882;DHT22;27562;47.524;12.404;2022-11-25T13:17:44;5.20;99.90
41882;DHT22;27562;47.524;12.404;2022-11-25T13:20:32;5.20;99.90
41882;DHT22;27562;47.524;12.404;2022-11-25T13:25:35;5.20;99.90
41882;DHT22;27562;47.524;12.404;2022-11-25T13:28:02;5.10;99.90
41882;DHT22;27562;47.524;12.404;2022-11-25T13:32:58;5.10;99.90
41882;DHT22;27562;47.524;12.404;2022-11-25T13:40:59;4.90;99.90
41882;DHT22;27562;47.524;12.404;2022-11-25T13:43:25;4.90;99.90
41882;DHT22;27562;47.524;12.404;2022-11-25T13:45:51;4.80;99.90
41882;DHT22;27562;47.524;12.404;2022-11-25T13:50:42;4.70;99.90
41882;DHT22;27562;47.524;12.404;2022-11-25T13:53:21;4.70;99.90
41882;DHT22;27562;47.524;12.404;2022-11-25T13:55:49;4.70;99.90
41882;DHT22;27562;47.524;12.404;2022-11-25T14:01:26;4.60;99.90
41882;DHT22;27562;47.524;12.404;2022-11-25T14:03:39;4.60;99.90
41882;DHT22;27562;47.524;12.404;2022-11-25T14:19:36;4.30;99.90
41882;DHT22;27562;47.524;12.404;2022-11-25T14:22:09;4.30;99.90
41882;DHT22;27562;47.524;12.404;2022-11-25T14:24:37;4.30;99.90
41882;DHT22;27562;47.524;12.404;2022-11-25T14:27:11;4.30;99.90
41882;DHT22;27562;47.524;12.404;2022-11-25T14:29:39;4.20;99.90
41882;DHT22;27562;47.524;12.404;2022-11-25T14:32:07;4.10;99.90
41882;DHT22;27562;47.524;12.404;2022-11-25T14:34:41;4.10;99.90
41882;DHT22;27562;47.524;12.404;2022-11-25T14:37:12;4.00;99.90
41882;DHT22;27562;47.524;12.404;2022-11-25T14:39:42;3.90;99.90
41882;DHT22;27562;47.524;12.404;2022-11-25T14:42:11;3.90;99.90
41882;DHT22;27562;47.524;12.404;2022-11-25T14:44:51;3.80;99.90
41882;DHT22;27562;47.524;12.404;2022-11-25T14:47:26;3.80;99.90
41882;DHT22;27562;47.524;12.404;2022-11-25T14:49:57;3.70;99.90
41882;DHT22;27562;47.524;12.404;2022-11-25T14:52:32;3.70;99.90
41882;DHT22;27562;47.524;12.404;2022-11-25T14:54:58;3.70;99.90
41882;DHT22;27562;47.524;12.404;2022-11-25T14:57:25;3.70;99.90
41882;DHT22;27562;47.524;12.404;2022-11-25T14:59:52;3.60;99.90
41882;DHT22;27562;47.524;12.404;2022-11-25T15:02:29;3.50;99.90
41882;DHT22;27562;47.524;12.404;2022-11-25T15:07:41;3.40;99.90
41882;DHT22;27562;47.524;12.404;2022-11-25T15:10:29;3.20;99.90
41882;DHT22;27562;47.524;12.404;2022-11-25T15:12:53;3.10;99.90
41882;DHT22;27562;47.524;12.404;2022-11-25T15:15:18;3.10;99.90
41882;DHT22;27562;47.524;12.404;2022-11-25T15:17:44;2.90;99.90
41882;DHT22;27562;47.524;12.404;2022-11-25T15:20:14;2.90;99.90
41882;DHT22;27562;47.524;12.404;2022-11-25T15:22:45;2.80;99.90
41882;DHT22;27562;47.524;12.404;2022-11-25T15:25:12;2.80;99.90
41882;DHT22;27562;47.524;12.404;2022-11-25T15:27:42;2.70;99.90
41882;DHT22;27562;47.524;12.404;2022-11-25T15:30:19;2.60;99.90
41882;DHT22;27562;47.524;12.404;2022-11-25T15:32:45;2.60;99.90
41882;DHT22;27562;47.524;12.404;2022-11-25T15:35:15;2.50;99.90
41882;DHT22;27562;47.524;12.404;2022-11-25T15:37:41;2.40;99.90
41882;DHT22;27562;47.524;12.404;2022-11-25T15:42:51;2.30;99.90
41882;DHT22;27562;47.524;12.404;2022-11-25T15:45:19;2.30;99.90
41882;DHT22;27562;47.524;12.404;2022-11-25T15:47:45;2.20;99.90
41882;DHT22;27562;47.524;12.404;2022-11-25T15:50:19;2.20;99.90
41882;DHT22;27562;47.524;12.404;2022-11-25T15:52:46;2.20;99.90
41882;DHT22;27562;47.524;12.404;2022-11-25T15:55:34;2.10;99.90
41882;DHT22;27562;47.524;12.404;2022-11-25T15:58:05;2.10;99.90
41882;DHT22;27562;47.524;12.404;2022-11-25T16:00:31;2.00;99.90
41882;DHT22;27562;47.524;12.404;2022-11-25T16:02:57;2.00;99.90
41882;DHT22;27562;47.524;12.404;2022-11-25T16:05:24;2.00;99.90
41882;DHT22;27562;47.524;12.404;2022-11-25T16:12:41;1.80;99.90
41882;DHT22;27562;47.524;12.404;2022-11-25T16:15:14;1.70;99.90
41882;DHT22;27562;47.524;12.404;2022-11-25T16:17:40;1.70;99.90
41882;DHT22;27562;47.524;12.404;2022-11-25T16:20:15;1.60;99.90
41882;DHT22;27562;47.524;12.404;2022-11-25T16:22:41;1.60;99.90
41882;DHT22;27562;47.524;12.404;2022-11-25T16:25:08;1.60;99.90
41882;DHT22;27562;47.524;12.404;2022-11-25T16:27:35;1.60;99.90
41882;DHT22;27562;47.524;12.404;2022-11-25T16:32:30;1.70;99.90
41882;DHT22;27562;47.524;12.404;2022-11-25T16:35:10;1.70;99.90
41882;DHT22;27562;47.524;12.404;2022-11-25T16:37:36;1.70;99.90
41882;DHT22;27562;47.524;12.404;2022-11-25T16:40:02;1.70;99.90
41882;DHT22;27562;47.524;12.404;2022-11-25T16:42:28;1.70;99.90
41882;DHT22;27562;47.524;12.404;2022-11-25T16:44:53;1.70;99.90
41882;DHT22;27562;47.524;12.404;2022-11-25T16:47:19;1.70;99.90
41882;DHT22;27562;47.524;12.404;2022-11-25T16:49:46;1.70;99.90
41882;DHT22;27562;47.524;12.404;2022-11-25T16:52:12;1.70;99.90
41882;DHT22;27562;47.524;12.404;2022-11-25T16:54:37;1.70;99.90
41882;DHT22;27562;47.524;12.404;2022-11-25T16:57:03;1.70;99.90
41882;DHT22;27562;47.524;12.404;2022-11-25T16:59:30;1.70;99.90
41882;DHT22;27562;47.524;12.404;2022-11-25T17:01:57;1.70;99.90
41882;DHT22;27562;47.524;12.404;2022-11-25T17:04:24;1.70;99.90
41882;DHT22;27562;47.524;12.404;2022-11-25T17:06:49;1.70;99.90
41882;DHT22;27562;47.524;12.404;2022-11-25T17:09:15;1.70;99.90
41882;DHT22;27562;47.524;12.404;2022-11-25T17:11:42;1.70;99.90
41882;DHT22;27562;47.524;12.404;2022-11-25T17:14:19;1.70;99.90
41882;DHT22;27562;47.524;12.404;2022-11-25T17:16:47;1.70;99.90
41882;DHT22;27562;47.524;12.404;2022-11-25T17:19:13;1.70;99.90
41882;DHT22;27562;47.524;12.404;2022-11-25T17:21:40;1.70;99.90
41882;DHT22;27562;47.524;12.404;2022-11-25T17:24:09;1.70;99.90
41882;DHT22;27562;47.524;12.404;2022-11-25T17:26:37;1.70;99.90
41882;DHT22;27562;47.524;12.404;2022-11-25T17:29:03;1.70;99.90
41882;DHT22;27562;47.524;12.404;2022-11-25T17:31:30;1.70;99.90
41882;DHT22;27562;47.524;12.404;2022-11-25T17:33:57;1.70;99.90